createdAt,value
2022-10-20T00:00:33.190Z,5.67
2022-10-20T00:02:59.849Z,5.82
2022-10-20T00:05:27.716Z,5.70
2022-10-20T00:07:54.259Z,6.03
2022-10-20T00:10:20.952Z,5.93
2022-10-20T00:12:47.463Z,5.77
2022-10-20T00:15:14.015Z,6.18
2022-10-20T00:17:40.566Z,6.72
2022-10-20T00:20:08.099Z,5.72
2022-10-20T00:22:36.269Z,5.65
2022-10-20T00:25:03.410Z,6.40
2022-10-20T00:27:29.981Z,5.88
2022-10-20T00:29:56.611Z,6.45
2022-10-20T00:32:23.132Z,6.93
2022-10-20T00:34:49.694Z,6.65
2022-10-20T00:37:16.196Z,7.00
2022-10-20T00:39:44.159Z,6.90
2022-10-20T00:42:14.633Z,6.85
2022-10-20T00:44:53.758Z,6.40
2022-10-20T00:47:28.955Z,6.18
2022-10-20T00:49:57.628Z,6.33
2022-10-20T00:52:25.369Z,6.10
2022-10-20T00:54:53.307Z,6.45
2022-10-20T00:57:20.652Z,7.03
2022-10-20T00:59:47.574Z,7.53
2022-10-20T01:02:14.461Z,7.07
2022-10-20T01:04:42.103Z,6.97
2022-10-20T01:07:08.649Z,6.90
2022-10-20T01:09:35.645Z,6.78
2022-10-20T01:12:14.215Z,6.40
2022-10-20T01:14:47.203Z,6.50
2022-10-20T01:17:24.022Z,6.57
2022-10-20T01:20:20.668Z,6.55
2022-10-20T01:23:10.910Z,6.60
2022-10-20T01:25:52.903Z,6.65
2022-10-20T01:28:26.703Z,6.00
2022-10-20T01:30:59.001Z,6.78
2022-10-20T01:33:35.561Z,6.88
2022-10-20T01:36:07.434Z,6.65
2022-10-20T01:38:39.174Z,6.70
2022-10-20T01:41:12.338Z,6.27
2022-10-20T01:43:43.204Z,6.70
2022-10-20T01:46:12.356Z,6.32
2022-10-20T01:48:40.204Z,6.35
2022-10-20T01:51:08.782Z,6.43
2022-10-20T01:53:35.730Z,6.67
2022-10-20T01:56:03.997Z,6.53
2022-10-20T01:59:11.411Z,6.90
2022-10-20T02:01:56.307Z,7.10
2022-10-20T02:04:33.651Z,7.57
2022-10-20T02:07:09.040Z,7.40
2022-10-20T02:09:41.880Z,7.40
2022-10-20T02:12:13.328Z,7.70
2022-10-20T02:14:42.703Z,7.68
2022-10-20T02:17:13.801Z,7.80
2022-10-20T02:19:42.655Z,7.20
2022-10-20T02:22:11.955Z,7.05
2022-10-20T02:24:40.841Z,7.63
2022-10-20T02:27:13.892Z,7.28
2022-10-20T02:29:46.097Z,6.78
2022-10-20T02:32:15.023Z,6.83
2022-10-20T02:34:42.625Z,7.07
2022-10-20T02:37:09.424Z,7.18
2022-10-20T02:39:36.129Z,6.75
2022-10-20T02:42:02.837Z,7.05
2022-10-20T02:44:29.372Z,7.17
2022-10-20T02:46:57.249Z,6.65
2022-10-20T02:49:23.972Z,7.40
2022-10-20T02:51:50.523Z,7.28
2022-10-20T02:54:17.336Z,7.35
2022-10-20T02:56:43.875Z,7.70
2022-10-20T02:59:13.047Z,7.50
2022-10-20T03:01:40.067Z,7.68
2022-10-20T03:04:07.994Z,7.40
2022-10-20T03:06:34.564Z,7.55
2022-10-20T03:09:01.152Z,6.60
2022-10-20T03:11:27.700Z,7.53
2022-10-20T03:13:54.247Z,7.13
2022-10-20T03:16:21.107Z,7.40
2022-10-20T03:18:47.780Z,7.00
2022-10-20T03:21:15.705Z,7.13
2022-10-20T03:23:42.264Z,6.97
2022-10-20T03:26:11.408Z,7.15
2022-10-20T03:28:39.629Z,6.80
2022-10-20T03:31:06.914Z,6.68
2022-10-20T03:33:33.437Z,6.33
2022-10-20T03:35:59.943Z,6.15
2022-10-20T03:38:28.109Z,6.80
2022-10-20T03:40:54.685Z,6.90
2022-10-20T03:43:21.333Z,7.53
2022-10-20T03:45:47.976Z,6.70
2022-10-20T03:48:14.706Z,7.25
2022-10-20T03:50:41.971Z,8.02
2022-10-20T03:53:12.153Z,7.40
2022-10-20T03:55:40.210Z,6.95
2022-10-20T03:58:06.746Z,7.20
2022-10-20T04:00:33.288Z,7.00
2022-10-20T04:02:59.815Z,7.55
2022-10-20T04:05:26.505Z,6.60
2022-10-20T04:07:53.062Z,6.50
2022-10-20T04:10:19.713Z,6.33
2022-10-20T04:12:47.590Z,7.30
2022-10-20T04:15:14.321Z,7.13
2022-10-20T04:17:40.857Z,7.53
2022-10-20T04:20:07.965Z,7.32
2022-10-20T04:22:34.821Z,7.03
2022-10-20T04:25:02.023Z,7.28
2022-10-20T04:27:28.761Z,7.15
2022-10-20T04:29:56.643Z,7.07
2022-10-20T04:32:23.185Z,6.57
2022-10-20T04:34:49.783Z,6.77
2022-10-20T04:37:16.291Z,6.78
2022-10-20T04:39:42.973Z,6.82
2022-10-20T04:42:09.462Z,7.00
2022-10-20T04:44:36.085Z,7.63
2022-10-20T04:47:03.941Z,6.60
2022-10-20T04:49:30.568Z,6.75
2022-10-20T04:52:00.838Z,8.00
2022-10-20T04:54:28.143Z,6.95
2022-10-20T04:56:54.650Z,7.22
2022-10-20T04:59:21.469Z,7.00
2022-10-20T05:01:48.184Z,6.55
2022-10-20T05:04:16.424Z,7.10
2022-10-20T05:06:43.055Z,8.32
2022-10-20T05:09:09.830Z,10.88
2022-10-20T05:11:37.261Z,9.33
2022-10-20T05:14:04.396Z,8.25
2022-10-20T05:16:31.302Z,8.73
2022-10-20T05:18:58.030Z,8.32
2022-10-20T05:21:28.200Z,8.20
2022-10-20T05:23:55.908Z,8.33
2022-10-20T05:26:22.520Z,7.97
2022-10-20T05:28:50.573Z,8.90
2022-10-20T05:31:19.405Z,8.68
2022-10-20T05:33:47.349Z,8.35
2022-10-20T05:36:19.382Z,8.33
2022-10-20T05:38:51.263Z,8.65
2022-10-20T05:41:19.932Z,8.25
2022-10-20T05:43:48.088Z,9.35
2022-10-20T05:46:14.749Z,10.30
2022-10-20T05:48:43.221Z,9.10
2022-10-20T05:51:13.937Z,9.10
2022-10-20T05:53:42.215Z,9.50
2022-10-20T05:56:12.020Z,7.70
2022-10-20T05:58:39.600Z,8.23
2022-10-20T06:01:09.550Z,7.63
2022-10-20T06:03:36.706Z,7.85
2022-10-20T06:06:04.302Z,8.23
2022-10-20T06:08:31.228Z,7.80
2022-10-20T06:11:01.585Z,7.50
2022-10-20T06:13:30.637Z,7.83
2022-10-20T06:16:01.553Z,8.63
2022-10-20T06:18:28.088Z,7.82
2022-10-20T06:21:00.368Z,8.18
2022-10-20T06:23:26.896Z,7.65
2022-10-20T06:25:53.443Z,7.53
2022-10-20T06:28:20.046Z,8.65
2022-10-20T06:30:47.923Z,9.50
2022-10-20T06:33:14.404Z,8.57
2022-10-20T06:35:41.044Z,8.90
2022-10-20T06:38:07.539Z,8.57
2022-10-20T06:40:34.209Z,8.48
2022-10-20T06:43:00.700Z,8.77
2022-10-20T06:45:27.324Z,9.85
2022-10-20T06:47:55.161Z,9.20
2022-10-20T06:50:21.764Z,8.20
2022-10-20T06:52:48.339Z,9.60
2022-10-20T06:55:14.986Z,9.13
2022-10-20T06:57:41.527Z,7.97
2022-10-20T07:00:09.250Z,9.55
2022-10-20T07:02:38.317Z,9.27
2022-10-20T07:05:07.530Z,9.75
2022-10-20T07:07:34.019Z,9.20
2022-10-20T07:10:00.535Z,8.40
2022-10-20T07:12:27.057Z,9.50
2022-10-20T07:14:53.584Z,8.07
2022-10-20T07:17:20.083Z,8.82
2022-10-20T07:19:46.601Z,9.13
2022-10-20T07:22:14.469Z,8.50
2022-10-20T07:24:41.022Z,9.45
2022-10-20T07:27:07.602Z,9.30
2022-10-20T07:32:05.629Z,9.02
2022-10-20T07:34:32.124Z,8.13
2022-10-20T07:36:58.980Z,8.20
2022-10-20T07:39:27.201Z,8.27
2022-10-20T07:41:53.861Z,8.82
2022-10-20T07:44:20.456Z,8.20
2022-10-20T07:46:47.002Z,8.32
2022-10-20T07:52:00.100Z,8.87
2022-10-20T07:54:27.970Z,7.97
2022-10-20T07:56:54.519Z,8.55
2022-10-20T07:59:21.192Z,8.48
2022-10-20T08:01:48.058Z,8.07
2022-10-20T08:04:14.625Z,8.27
2022-10-20T08:06:41.514Z,7.93
2022-10-20T08:09:08.252Z,9.35
2022-10-20T08:11:36.161Z,9.38
2022-10-20T08:14:02.799Z,8.93
2022-10-20T08:16:31.406Z,8.53
2022-10-20T08:18:58.231Z,9.25
2022-10-20T08:21:24.872Z,8.35
2022-10-20T08:23:51.720Z,7.72
2022-10-20T08:26:19.620Z,7.97
2022-10-20T08:28:51.170Z,7.73
2022-10-20T08:31:17.853Z,7.75
2022-10-20T08:33:46.815Z,7.95
2022-10-20T08:36:16.636Z,8.02
2022-10-20T08:38:43.516Z,8.93
2022-10-20T08:41:16.597Z,8.70
2022-10-20T08:43:44.900Z,8.48
2022-10-20T08:46:15.417Z,8.98
2022-10-20T08:48:43.344Z,7.90
2022-10-20T08:51:17.463Z,7.97
2022-10-20T08:53:44.056Z,8.87
2022-10-20T08:56:12.669Z,9.25
2022-10-20T08:58:42.610Z,8.30
2022-10-20T09:01:20.077Z,7.72
2022-10-20T09:03:51.513Z,8.07
2022-10-20T09:06:18.439Z,8.33
2022-10-20T09:08:45.969Z,8.25
2022-10-20T09:11:17.194Z,8.68
2022-10-20T09:13:44.310Z,7.93
2022-10-20T09:16:27.310Z,8.30
2022-10-20T09:19:13.741Z,7.80
2022-10-20T09:21:41.344Z,8.40
2022-10-20T09:24:08.229Z,8.43
2022-10-20T09:26:54.606Z,7.95
2022-10-20T09:29:35.128Z,7.75
2022-10-20T09:32:15.350Z,7.97
2022-10-20T09:34:49.528Z,7.65
2022-10-20T09:37:18.429Z,8.30
2022-10-20T09:39:55.378Z,7.75
2022-10-20T09:42:28.483Z,8.52
2022-10-20T09:44:58.455Z,8.00
2022-10-20T09:47:27.750Z,8.50
2022-10-20T09:50:01.203Z,9.27
2022-10-20T09:52:31.814Z,8.45
2022-10-20T09:55:02.550Z,8.73
2022-10-20T09:57:31.104Z,8.37
2022-10-20T10:00:04.687Z,8.13
2022-10-20T10:02:39.898Z,8.23
2022-10-20T10:05:17.971Z,8.35
2022-10-20T10:07:44.896Z,8.25
2022-10-20T10:10:25.181Z,8.50
2022-10-20T10:12:52.403Z,7.90
2022-10-20T10:15:26.853Z,8.63
2022-10-20T10:17:54.996Z,8.07
2022-10-20T10:20:33.008Z,9.27
2022-10-20T10:23:20.186Z,8.27
2022-10-20T10:25:46.960Z,8.43
2022-10-20T10:31:19.117Z,8.13
2022-10-20T10:33:46.025Z,8.15
2022-10-20T10:36:21.731Z,8.13
2022-10-20T10:38:48.454Z,8.52
2022-10-20T10:41:24.208Z,8.13
2022-10-20T10:44:00.175Z,8.48
2022-10-20T10:46:28.334Z,8.65
2022-10-20T10:49:07.019Z,8.67
2022-10-20T10:51:47.902Z,8.10
2022-10-20T10:54:31.948Z,8.60
2022-10-20T10:57:03.166Z,8.38
2022-10-20T10:59:34.979Z,8.40
2022-10-20T11:02:35.110Z,8.20
2022-10-20T11:05:21.008Z,9.10
2022-10-20T11:07:59.456Z,8.55
2022-10-20T11:10:33.240Z,8.02
2022-10-20T11:13:16.120Z,7.88
2022-10-20T11:15:54.604Z,7.37
2022-10-20T11:18:41.508Z,7.40
2022-10-20T11:21:19.511Z,7.80
2022-10-20T11:24:11.551Z,7.47
2022-10-20T11:26:40.646Z,7.75
2022-10-20T11:29:16.226Z,7.70
2022-10-20T11:31:48.265Z,8.32
2022-10-20T11:34:20.475Z,7.75
2022-10-20T11:36:54.862Z,7.18
2022-10-20T11:39:28.379Z,8.05
2022-10-20T11:42:01.217Z,7.70
2022-10-20T11:44:34.967Z,8.07
2022-10-20T11:47:05.920Z,8.30
2022-10-20T11:49:33.761Z,8.02
2022-10-20T11:52:33.120Z,8.23
2022-10-20T11:55:19.168Z,7.80
2022-10-20T11:58:01.636Z,8.38
2022-10-20T12:00:44.052Z,7.97
2022-10-20T12:03:38.178Z,7.68
2022-10-20T12:06:52.432Z,7.95
2022-10-20T12:09:40.216Z,7.37
2022-10-20T12:12:14.524Z,7.60
2022-10-20T12:14:43.400Z,8.55
2022-10-20T12:17:33.375Z,8.52
2022-10-20T12:20:37.065Z,9.10
2022-10-20T12:23:04.175Z,8.80
2022-10-20T12:25:41.330Z,8.27
2022-10-20T12:28:39.755Z,8.55
2022-10-20T12:31:06.372Z,9.18
2022-10-20T12:33:41.992Z,9.65
2022-10-20T12:36:32.116Z,9.17
2022-10-20T12:39:22.632Z,8.82
2022-10-20T12:41:58.916Z,8.10
2022-10-20T12:44:29.173Z,9.27
2022-10-20T12:46:58.692Z,8.52
2022-10-20T12:49:30.419Z,8.40
2022-10-20T12:51:58.538Z,8.95
2022-10-20T12:54:31.576Z,9.05
2022-10-20T12:57:01.386Z,7.15
2022-10-20T12:59:47.038Z,7.65
2022-10-20T13:02:32.945Z,8.03
2022-10-20T13:05:02.089Z,8.48
2022-10-20T13:08:00.999Z,10.70
2022-10-20T13:10:33.110Z,9.27
2022-10-20T13:13:41.110Z,9.25
2022-10-20T13:16:18.730Z,9.43
2022-10-20T13:18:48.140Z,8.35
2022-10-20T13:21:26.752Z,8.40
2022-10-20T13:24:01.583Z,8.93
2022-10-20T13:26:31.020Z,8.82
2022-10-20T13:29:00.347Z,8.73
2022-10-20T13:31:33.190Z,8.57
2022-10-20T13:34:07.160Z,8.52
2022-10-20T13:36:53.176Z,8.15
2022-10-20T13:39:25.563Z,8.00
2022-10-20T13:42:02.662Z,8.53
2022-10-20T13:44:36.547Z,8.80
2022-10-20T13:47:22.419Z,7.90
2022-10-20T13:49:59.408Z,8.50
2022-10-20T13:52:28.135Z,7.97
2022-10-20T13:54:56.149Z,7.97
2022-10-20T13:57:27.726Z,7.13
2022-10-20T13:59:59.215Z,8.63
2022-10-20T14:02:29.680Z,7.65
2022-10-20T14:05:05.056Z,8.10
2022-10-20T14:07:39.765Z,7.93
2022-10-20T14:10:07.620Z,7.95
2022-10-20T14:12:34.424Z,7.65
2022-10-20T14:15:03.910Z,7.00
2022-10-20T14:17:31.862Z,6.50
2022-10-20T14:20:09.433Z,6.83
2022-10-20T14:22:42.943Z,6.55
2022-10-20T14:25:11.471Z,6.60
2022-10-20T14:27:38.742Z,6.80
2022-10-20T14:30:07.664Z,7.10
2022-10-20T14:32:39.253Z,6.80
2022-10-20T14:35:17.865Z,6.60
2022-10-20T14:37:50.768Z,6.90
2022-10-20T14:40:21.454Z,6.53
2022-10-20T14:42:48.800Z,8.23
2022-10-20T14:45:20.719Z,8.50
2022-10-20T14:47:49.934Z,8.20
2022-10-20T14:50:22.489Z,8.75
2022-10-20T14:52:53.677Z,7.80
2022-10-20T14:55:30.850Z,7.60
2022-10-20T14:57:57.461Z,7.73
2022-10-20T15:00:27.499Z,7.30
2022-10-20T15:02:56.357Z,6.97
2022-10-20T15:05:31.479Z,7.57
2022-10-20T15:08:01.453Z,7.50
2022-10-20T15:10:31.292Z,8.07
2022-10-20T15:12:58.089Z,10.10
2022-10-20T15:15:27.271Z,10.00
2022-10-20T15:18:10.007Z,7.68
2022-10-20T15:20:38.092Z,7.88
2022-10-20T15:23:08.141Z,6.50
2022-10-20T15:25:43.226Z,7.07
2022-10-20T15:28:32.038Z,7.40
2022-10-20T15:30:59.939Z,7.70
2022-10-20T15:33:28.137Z,8.00
2022-10-20T15:35:54.712Z,8.20
2022-10-20T15:38:21.656Z,7.45
2022-10-20T15:40:48.523Z,7.05
2022-10-20T15:43:16.653Z,6.82
2022-10-20T15:45:47.435Z,6.35
2022-10-20T15:48:13.998Z,7.17
2022-10-20T15:50:41.983Z,7.63
2022-10-20T15:53:11.925Z,7.20
2022-10-20T15:55:42.177Z,8.10
2022-10-20T15:58:10.093Z,8.73
2022-10-20T16:00:37.567Z,8.10
2022-10-20T16:03:04.851Z,8.07
2022-10-20T16:05:31.610Z,8.48
2022-10-20T16:07:59.491Z,8.68
2022-10-20T16:10:27.078Z,8.00
2022-10-20T16:12:53.600Z,8.17
2022-10-20T16:15:20.134Z,9.38
2022-10-20T16:17:46.793Z,8.85
2022-10-20T16:20:14.267Z,11.05
2022-10-20T16:22:41.178Z,10.88
2022-10-20T16:25:10.431Z,9.83
2022-10-20T16:27:37.675Z,10.18
2022-10-20T16:30:06.605Z,10.18
2022-10-20T16:32:35.317Z,8.73
2022-10-20T16:35:02.518Z,8.25
2022-10-20T16:37:30.699Z,8.90
2022-10-20T16:39:57.222Z,8.63
2022-10-20T16:42:25.309Z,9.13
2022-10-20T16:44:51.829Z,9.35
2022-10-20T16:47:18.489Z,10.32
2022-10-20T16:49:44.997Z,9.93
2022-10-20T16:52:11.640Z,10.45
2022-10-20T16:54:38.172Z,9.55
2022-10-20T16:57:04.863Z,8.75
2022-10-20T16:59:32.709Z,9.10
2022-10-20T17:01:59.289Z,9.10
2022-10-20T17:04:25.857Z,9.00
2022-10-20T17:06:52.416Z,8.35
2022-10-20T17:09:19.277Z,9.57
2022-10-20T17:11:45.847Z,8.82
2022-10-20T17:14:12.477Z,8.87
2022-10-20T17:16:40.525Z,8.93
2022-10-20T17:19:07.036Z,9.18
2022-10-20T17:21:34.428Z,8.95
2022-10-20T17:24:01.712Z,9.00
2022-10-20T17:26:30.034Z,8.87
2022-10-20T17:28:58.194Z,9.52
2022-10-20T17:31:24.830Z,10.10
2022-10-20T17:33:53.152Z,18.25
2022-10-20T17:36:19.730Z,14.90
2022-10-20T17:38:46.330Z,12.40
2022-10-20T17:41:14.838Z,10.25
2022-10-20T17:43:41.937Z,11.68
2022-10-20T17:46:10.904Z,13.20
2022-10-20T17:48:38.168Z,16.27
2022-10-20T17:51:08.064Z,14.53
2022-10-20T17:53:36.156Z,19.25
2022-10-20T17:56:05.871Z,15.73
2022-10-20T17:58:32.921Z,13.18
2022-10-20T18:01:07.526Z,10.70
2022-10-20T18:03:34.040Z,10.50
2022-10-20T18:06:10.970Z,10.75
2022-10-20T18:08:38.061Z,12.25
2022-10-20T18:11:08.558Z,12.05
2022-10-20T18:13:35.141Z,13.57
2022-10-20T18:16:04.533Z,11.70
2022-10-20T18:18:31.106Z,12.70
2022-10-20T18:20:57.663Z,12.90
2022-10-20T18:23:25.897Z,12.77
2022-10-20T18:25:52.425Z,13.05
2022-10-20T18:28:19.057Z,12.97
2022-10-20T18:30:45.786Z,13.00
2022-10-20T18:33:12.297Z,13.80
2022-10-20T18:35:39.306Z,12.98
2022-10-20T18:38:06.122Z,11.57
2022-10-20T18:40:34.036Z,11.83
2022-10-20T18:43:00.536Z,12.05
2022-10-20T18:45:27.230Z,11.52
2022-10-20T18:47:53.771Z,12.02
2022-10-20T18:50:20.517Z,11.57
2022-10-20T18:52:47.061Z,12.40
2022-10-20T18:55:13.564Z,12.70
2022-10-20T18:57:41.468Z,13.40
2022-10-20T19:00:09.388Z,13.70
2022-10-20T19:02:36.058Z,13.43
2022-10-20T19:05:02.676Z,11.73
2022-10-20T19:07:32.356Z,13.05
2022-10-20T19:09:58.935Z,16.60
2022-10-20T19:12:25.431Z,13.90
2022-10-20T19:14:53.343Z,14.00
2022-10-20T19:17:19.835Z,12.40
2022-10-20T19:19:46.339Z,13.88
2022-10-20T19:22:12.860Z,15.25
2022-10-20T19:24:39.383Z,13.25
2022-10-20T19:27:26.596Z,14.60
2022-10-20T19:29:54.232Z,14.07
2022-10-20T19:32:20.774Z,15.50
2022-10-20T19:34:47.304Z,15.30
2022-10-20T19:37:13.852Z,15.23
2022-10-20T19:39:41.902Z,13.50
2022-10-20T19:42:09.128Z,14.57
2022-10-20T19:44:36.705Z,16.00
2022-10-20T19:47:05.979Z,14.60
2022-10-20T19:49:32.644Z,13.57
2022-10-20T19:51:59.211Z,13.60
2022-10-20T19:54:26.070Z,14.07
2022-10-20T19:56:52.620Z,14.65
2022-10-20T19:59:19.306Z,15.68
2022-10-20T20:01:45.974Z,14.35
2022-10-20T20:04:13.869Z,14.45
2022-10-20T20:06:40.612Z,14.33
2022-10-20T20:09:09.027Z,17.55
2022-10-20T20:11:36.863Z,19.25
2022-10-20T20:14:06.331Z,16.58
2022-10-20T20:16:32.994Z,15.95
2022-10-20T20:18:59.564Z,18.00
2022-10-20T20:21:27.988Z,17.05
2022-10-20T20:23:59.303Z,17.15
2022-10-20T20:26:27.361Z,16.88
2022-10-20T20:28:54.498Z,17.02
2022-10-20T20:31:22.365Z,18.07
2022-10-20T20:33:49.711Z,15.98
2022-10-20T20:36:16.407Z,15.02
2022-10-20T20:38:44.463Z,19.60
2022-10-20T20:41:13.034Z,27.27
2022-10-20T20:43:39.907Z,21.40
2022-10-20T20:46:09.026Z,20.10
2022-10-20T20:48:36.418Z,19.05
2022-10-20T20:51:03.769Z,19.88
2022-10-20T20:53:30.564Z,20.45
2022-10-20T20:55:59.981Z,20.30
2022-10-20T20:58:27.728Z,18.33
2022-10-20T21:01:01.212Z,17.70
2022-10-20T21:03:27.916Z,14.30
2022-10-20T21:05:54.438Z,14.30
2022-10-20T21:08:20.958Z,13.73
2022-10-20T21:10:47.486Z,13.05
2022-10-20T21:13:15.335Z,13.23
2022-10-20T21:15:41.819Z,10.82
2022-10-20T21:18:08.357Z,11.60
2022-10-20T21:20:34.866Z,11.13
2022-10-20T21:23:01.410Z,11.43
2022-10-20T21:25:27.908Z,11.52
2022-10-20T21:27:54.428Z,11.25
2022-10-20T21:30:22.309Z,12.05
2022-10-20T21:32:48.841Z,11.10
2022-10-20T21:35:15.543Z,11.35
2022-10-20T21:37:42.043Z,11.18
2022-10-20T21:40:09.813Z,11.85
2022-10-20T21:42:39.288Z,11.20
2022-10-20T21:45:06.604Z,10.87
2022-10-20T21:47:34.490Z,10.73
2022-10-20T21:50:00.998Z,11.10
2022-10-20T21:52:27.482Z,10.35
2022-10-20T21:54:53.986Z,11.00
2022-10-20T21:57:20.623Z,10.23
2022-10-20T21:59:47.164Z,11.15
2022-10-20T22:02:13.690Z,11.13
2022-10-20T22:04:41.526Z,10.57
2022-10-20T22:07:08.011Z,10.43
2022-10-20T22:09:34.533Z,10.37
2022-10-20T22:12:01.025Z,10.77
2022-10-20T22:14:27.903Z,9.85
2022-10-20T22:16:54.407Z,10.45
2022-10-20T22:19:23.133Z,11.40
2022-10-20T22:21:52.579Z,10.77
2022-10-20T22:24:20.021Z,10.93
2022-10-20T22:26:47.963Z,11.77
2022-10-20T22:29:14.822Z,11.75
2022-10-20T22:31:41.451Z,10.82
2022-10-20T22:34:09.260Z,10.53
2022-10-20T22:36:36.285Z,11.15
2022-10-20T22:39:04.569Z,11.18
2022-10-20T22:41:31.117Z,11.63
2022-10-20T22:43:58.274Z,10.73
2022-10-20T22:46:25.267Z,9.67
2022-10-20T22:48:51.838Z,10.75
2022-10-20T22:51:18.557Z,10.93
2022-10-20T22:53:45.132Z,16.90
2022-10-20T22:56:14.840Z,14.40
2022-10-20T22:58:42.212Z,14.20
2022-10-20T23:01:11.256Z,13.35
2022-10-20T23:03:38.708Z,12.45
2022-10-20T23:06:06.645Z,12.77
2022-10-20T23:08:37.783Z,12.48
2022-10-20T23:11:05.029Z,10.90
2022-10-20T23:13:33.061Z,12.02
2022-10-20T23:15:59.812Z,12.85
2022-10-20T23:18:26.387Z,11.88
2022-10-20T23:20:54.832Z,11.60
2022-10-20T23:23:24.178Z,10.23
2022-10-20T23:25:51.010Z,11.50
2022-10-20T23:28:18.171Z,11.15
2022-10-20T23:30:46.657Z,11.32
2022-10-20T23:33:13.291Z,10.63
2022-10-20T23:35:40.079Z,11.37
2022-10-20T23:38:07.949Z,12.00
2022-10-20T23:40:34.652Z,11.13
2022-10-20T23:43:01.162Z,11.05
2022-10-20T23:45:27.758Z,12.05
2022-10-20T23:47:55.799Z,11.10
2022-10-20T23:50:22.728Z,11.27
2022-10-20T23:52:49.261Z,11.25
2022-10-20T23:55:16.100Z,11.80
2022-10-20T23:57:42.627Z,11.60
